Time;durP1;ratioP1;P1;durP2;ratioP2;P2;SDS_P1;SDS_P2;PMS_P1;PMS_P2;Temp;Humidity;BMP_temperature;BMP_pressure;BME280_temperature;BME280_humidity;BME280_pressure;Samples;Min_cycle;Max_cycle;Signal;HPM_P1;HPM_P2
2021/08/12 00:00:00;;;;;;;7.88;3.40;;;;;;;;;;5027684;28;20060;-57
2021/08/12 00:02:28;;;;;;;5.95;3.88;;;;;;;;;;5028177;28;20053;-59
2021/08/12 00:04:57;;;;;;;6.22;3.42;;;;;;;;;;5033829;28;20167;-58
2021/08/12 00:07:25;;;;;;;8.13;3.75;;;;;;;;;;5032737;28;20133;-59
2021/08/12 00:09:54;;;;;;;6.55;4.10;;;;;;;;;;5022726;28;20160;-60
2021/08/12 00:12:24;;;;;;;6.57;3.55;;;;;;;;;;5025278;28;20038;-60
2021/08/12 00:14:52;;;;;;;5.80;3.38;;;;;;;;;;5021353;28;20413;-59
2021/08/12 00:17:21;;;;;;;6.70;3.30;;;;;;;;;;5021304;28;20096;-59
2021/08/12 00:19:49;;;;;;;7.00;3.72;;;;;;;;;;5024317;28;20141;-59
2021/08/12 00:22:17;;;;;;;6.35;3.38;;;;;;;;;;5027067;28;20056;-58
2021/08/12 00:24:45;;;;;;;10.63;3.67;;;;;;;;;;5014858;28;20311;-58
2021/08/12 00:27:14;;;;;;;7.75;3.45;;;;;;;;;;5039190;28;20437;-59
2021/08/12 00:29:43;;;;;;;5.97;3.53;;;;;;;;;;5029663;28;20493;-59
2021/08/12 00:32:11;;;;;;;4.95;3.42;;;;;;;;;;5025165;28;20052;-58
2021/08/12 00:34:39;;;;;;;5.80;3.22;;;;;;;;;;5015126;28;20074;-58
2021/08/12 00:37:08;;;;;;;6.72;3.67;;;;;;;;;;5010014;28;20041;-59
2021/08/12 00:39:36;;;;;;;7.80;3.15;;;;;;;;;;5030629;28;20145;-59
2021/08/12 00:42:05;;;;;;;5.85;3.75;;;;;;;;;;5023158;28;20156;-59
2021/08/12 00:44:33;;;;;;;5.95;3.55;;;;;;;;;;5015510;28;20056;-58
2021/08/12 00:47:02;;;;;;;6.72;3.63;;;;;;;;;;5020816;28;20350;-58
2021/08/12 00:49:31;;;;;;;5.95;3.33;;;;;;;;;;5027131;28;20261;-58
2021/08/12 00:52:00;;;;;;;8.55;3.42;;;;;;;;;;5033619;28;20052;-59
2021/08/12 00:54:28;;;;;;;7.05;3.50;;;;;;;;;;5021327;28;20514;-60
2021/08/12 00:56:56;;;;;;;6.57;3.47;;;;;;;;;;5028072;28;20167;-59
2021/08/12 00:59:25;;;;;;;5.13;3.20;;;;;;;;;;5034151;28;20045;-58
2021/08/12 01:01:57;;;;;;;5.55;3.38;;;;;;;;;;5036531;28;20053;-59
2021/08/12 01:04:26;;;;;;;6.90;3.45;;;;;;;;;;5019257;28;20046;-58
2021/08/12 01:06:59;;;;;;;7.00;3.05;;;;;;;;;;5032766;28;20375;-58
2021/08/12 01:09:33;;;;;;;5.40;3.17;;;;;;;;;;5026107;28;20482;-57
2021/08/12 01:12:06;;;;;;;5.13;3.08;;;;;;;;;;5027210;28;20129;-58
2021/08/12 01:14:38;;;;;;;4.95;3.05;;;;;;;;;;5031395;28;20049;-59
2021/08/12 01:17:08;;;;;;;6.93;3.13;;;;;;;;;;5032918;28;20514;-58
2021/08/12 01:19:55;;;;;;;8.95;3.28;;;;;;;;;;5030958;28;20484;-58
2021/08/12 01:22:25;;;;;;;7.35;3.35;;;;;;;;;;5042071;28;20076;-58
2021/08/12 01:24:54;;;;;;;7.45;3.35;;;;;;;;;;5036944;28;20053;-58
2021/08/12 01:27:24;;;;;;;6.70;3.58;;;;;;;;;;5038479;28;20516;-59
2021/08/12 01:29:54;;;;;;;7.18;3.13;;;;;;;;;;5037564;28;20049;-58
2021/08/12 01:32:25;;;;;;;5.93;3.13;;;;;;;;;;5039991;28;20052;-58
2021/08/12 01:35:01;;;;;;;8.90;3.40;;;;;;;;;;5028652;28;20057;-59
2021/08/12 01:37:33;;;;;;;5.40;3.05;;;;;;;;;;5044873;28;20527;-59
2021/08/12 01:40:03;;;;;;;4.97;3.15;;;;;;;;;;5035038;28;20049;-58
2021/08/12 01:42:32;;;;;;;9.40;3.83;;;;;;;;;;5044518;28;20045;-58
2021/08/12 01:45:00;;;;;;;8.20;3.70;;;;;;;;;;5034128;28;20416;-58
2021/08/12 01:47:29;;;;;;;5.68;3.08;;;;;;;;;;5037677;28;20422;-59
2021/08/12 01:49:58;;;;;;;7.63;3.28;;;;;;;;;;5032812;28;20049;-58
2021/08/12 01:52:28;;;;;;;4.82;3.20;;;;;;;;;;5038365;28;20697;-58
2021/08/12 01:54:57;;;;;;;6.40;3.38;;;;;;;;;;5032295;28;20096;-58
2021/08/12 01:57:25;;;;;;;5.53;3.33;;;;;;;;;;5031328;28;20045;-59
2021/08/12 01:59:54;;;;;;;7.72;3.53;;;;;;;;;;5029552;28;20095;-58
2021/08/12 02:02:23;;;;;;;10.60;3.20;;;;;;;;;;5035148;28;20057;-57
2021/08/12 02:04:53;;;;;;;9.73;3.53;;;;;;;;;;5027954;28;20049;-58
2021/08/12 02:07:21;;;;;;;11.02;4.15;;;;;;;;;;5037051;28;20136;-58
2021/08/12 02:09:50;;;;;;;4.30;3.10;;;;;;;;;;5028543;28;20056;-58
2021/08/12 02:12:19;;;;;;;7.47;3.22;;;;;;;;;;5036861;28;20053;-59
2021/08/12 02:14:47;;;;;;;6.10;3.40;;;;;;;;;;5039134;28;20045;-59
2021/08/12 02:17:15;;;;;;;8.43;3.30;;;;;;;;;;5031539;28;20159;-57
2021/08/12 02:19:43;;;;;;;8.20;3.17;;;;;;;;;;5034712;28;20057;-59
2021/08/12 02:22:14;;;;;;;7.43;3.22;;;;;;;;;;5027205;28;20069;-60
2021/08/12 02:24:44;;;;;;;5.35;3.40;;;;;;;;;;5044291;28;20489;-58
2021/08/12 02:27:14;;;;;;;6.10;3.72;;;;;;;;;;5020683;28;20413;-58
2021/08/12 02:29:43;;;;;;;7.38;3.33;;;;;;;;;;5040978;28;20053;-59
2021/08/12 02:32:13;;;;;;;5.88;3.28;;;;;;;;;;5026648;28;20073;-58
2021/08/12 02:34:42;;;;;;;5.43;3.40;;;;;;;;;;5028504;28;20745;-59
2021/08/12 02:37:12;;;;;;;8.68;4.10;;;;;;;;;;5030085;28;20049;-58
2021/08/12 02:39:40;;;;;;;9.27;3.92;;;;;;;;;;5037910;28;20056;-58
2021/08/12 02:42:10;;;;;;;7.43;3.60;;;;;;;;;;5037830;28;20138;-58
2021/08/12 02:44:41;;;;;;;5.65;3.10;;;;;;;;;;5023429;28;20223;-59
2021/08/12 02:47:10;;;;;;;7.75;3.10;;;;;;;;;;5036385;28;20140;-60
2021/08/12 02:49:45;;;;;;;8.88;3.60;;;;;;;;;;5030350;28;20405;-60
2021/08/12 02:52:14;;;;;;;6.72;4.13;;;;;;;;;;5030784;28;20051;-58
2021/08/12 02:54:44;;;;;;;8.05;3.75;;;;;;;;;;5023025;28;20051;-59
2021/08/12 02:57:13;;;;;;;5.35;3.38;;;;;;;;;;5030043;28;20124;-60
2021/08/12 02:59:43;;;;;;;6.53;3.50;;;;;;;;;;5029832;28;20060;-58
2021/08/12 03:02:13;;;;;;;7.93;3.65;;;;;;;;;;5019101;28;20057;-58
2021/08/12 03:04:44;;;;;;;6.75;3.03;;;;;;;;;;5033160;28;20739;-59
2021/08/12 03:07:13;;;;;;;4.90;3.05;;;;;;;;;;5028261;28;20049;-59
2021/08/12 03:09:42;;;;;;;6.03;3.15;;;;;;;;;;5032232;28;20128;-60
2021/08/12 03:12:12;;;;;;;8.82;4.28;;;;;;;;;;5028563;28;20049;-59
2021/08/12 03:14:42;;;;;;;7.22;4.00;;;;;;;;;;5026539;28;20049;-58
2021/08/12 03:17:12;;;;;;;6.28;3.25;;;;;;;;;;5034189;28;20376;-58
2021/08/12 03:19:40;;;;;;;7.00;3.67;;;;;;;;;;5041383;28;20515;-58
2021/08/12 03:22:09;;;;;;;6.40;3.25;;;;;;;;;;5035690;28;20416;-58
2021/08/12 03:24:39;;;;;;;6.25;3.20;;;;;;;;;;5041681;28;20045;-58
2021/08/12 03:27:10;;;;;;;6.25;3.70;;;;;;;;;;5022671;28;20090;-58
2021/08/12 03:29:50;;;;;;;8.55;3.62;;;;;;;;;;602382;28;10023959;-59
2021/08/12 03:32:19;;;;;;;6.15;3.55;;;;;;;;;;5029740;28;20276;-59
2021/08/12 03:34:47;;;;;;;6.70;3.53;;;;;;;;;;5034498;28;20044;-59
2021/08/12 03:37:16;;;;;;;5.72;3.53;;;;;;;;;;5039768;28;20056;-58
2021/08/12 03:39:44;;;;;;;6.43;3.80;;;;;;;;;;5042119;28;20045;-60
2021/08/12 03:42:13;;;;;;;7.82;4.03;;;;;;;;;;5037066;28;20041;-58
2021/08/12 03:44:41;;;;;;;7.43;4.30;;;;;;;;;;5034232;28;20060;-58
2021/08/12 03:47:10;;;;;;;9.52;3.72;;;;;;;;;;5027459;28;20071;-58
2021/08/12 03:49:39;;;;;;;9.18;3.85;;;;;;;;;;5033674;28;20516;-57
2021/08/12 03:52:07;;;;;;;7.10;3.45;;;;;;;;;;5035544;28;20050;-59
2021/08/12 03:54:36;;;;;;;5.95;3.40;;;;;;;;;;5031005;28;20052;-58
2021/08/12 03:57:05;;;;;;;9.52;3.78;;;;;;;;;;5029572;28;20144;-58
2021/08/12 03:59:33;;;;;;;5.32;3.28;;;;;;;;;;5026376;28;20456;-59
2021/08/12 04:02:01;;;;;;;6.88;3.55;;;;;;;;;;5023816;28;20057;-58
2021/08/12 04:04:31;;;;;;;7.63;3.95;;;;;;;;;;5030349;28;20049;-58
2021/08/12 04:06:59;;;;;;;5.65;3.67;;;;;;;;;;5037726;28;20127;-58
2021/08/12 04:09:28;;;;;;;5.55;3.60;;;;;;;;;;5037682;28;20531;-58
2021/08/12 04:11:56;;;;;;;10.57;3.80;;;;;;;;;;5024073;28;20053;-59
2021/08/12 04:14:24;;;;;;;12.48;3.58;;;;;;;;;;5027639;28;20061;-59
2021/08/12 04:16:52;;;;;;;9.65;4.10;;;;;;;;;;5027165;28;20144;-59
2021/08/12 04:19:22;;;;;;;12.40;4.68;;;;;;;;;;5027100;28;20051;-60
2021/08/12 04:21:52;;;;;;;8.13;3.92;;;;;;;;;;5027585;28;20061;-59
2021/08/12 04:24:20;;;;;;;9.20;4.05;;;;;;;;;;5026410;28;20390;-59
2021/08/12 04:26:48;;;;;;;8.75;4.22;;;;;;;;;;5027253;28;20049;-60
2021/08/12 04:29:16;;;;;;;12.75;4.10;;;;;;;;;;5026996;28;20354;-58
2021/08/12 04:31:44;;;;;;;11.18;4.72;;;;;;;;;;5021395;28;20069;-59
2021/08/12 04:34:13;;;;;;;10.65;4.70;;;;;;;;;;5014913;28;20050;-58
2021/08/12 04:36:41;;;;;;;8.73;4.03;;;;;;;;;;5024070;28;20045;-58
2021/08/12 04:39:11;;;;;;;7.82;4.50;;;;;;;;;;5023714;28;20911;-58
2021/08/12 04:41:39;;;;;;;10.75;4.53;;;;;;;;;;5026070;28;20343;-58
2021/08/12 04:44:07;;;;;;;6.40;3.83;;;;;;;;;;5022932;28;20057;-59
2021/08/12 04:46:35;;;;;;;7.13;3.88;;;;;;;;;;5015774;28;20145;-59
2021/08/12 04:49:04;;;;;;;10.23;4.43;;;;;;;;;;5009167;28;20076;-58
2021/08/12 04:51:32;;;;;;;8.32;4.13;;;;;;;;;;5010844;28;20410;-58
2021/08/12 04:54:00;;;;;;;8.63;3.90;;;;;;;;;;5016778;28;20061;-57
2021/08/12 04:56:30;;;;;;;9.75;4.45;;;;;;;;;;5019840;28;20393;-58
2021/08/12 04:58:58;;;;;;;9.07;4.35;;;;;;;;;;5022630;28;20111;-60
2021/08/12 05:01:26;;;;;;;10.05;4.53;;;;;;;;;;5022900;28;20060;-59
2021/08/12 05:03:55;;;;;;;9.02;4.68;;;;;;;;;;5011564;28;20080;-59
2021/08/12 05:06:25;;;;;;;6.28;3.88;;;;;;;;;;5022783;28;20049;-58
2021/08/12 05:08:54;;;;;;;11.48;4.53;;;;;;;;;;5016606;28;20037;-59
2021/08/12 05:11:22;;;;;;;6.75;4.00;;;;;;;;;;5007244;28;20466;-58
2021/08/12 05:13:52;;;;;;;6.25;4.03;;;;;;;;;;5018654;28;20141;-59
2021/08/12 05:16:21;;;;;;;11.20;4.65;;;;;;;;;;5016183;28;20159;-58
2021/08/12 05:18:49;;;;;;;9.88;4.35;;;;;;;;;;5015604;28;20576;-58
2021/08/12 05:21:17;;;;;;;7.63;4.10;;;;;;;;;;5026144;28;20049;-58
2021/08/12 05:23:46;;;;;;;8.75;4.18;;;;;;;;;;5018781;28;20053;-60
2021/08/12 05:26:14;;;;;;;6.07;3.88;;;;;;;;;;5017824;28;20056;-58
2021/08/12 05:28:42;;;;;;;6.63;4.22;;;;;;;;;;5023264;28;20528;-58
2021/08/12 05:31:12;;;;;;;7.38;4.32;;;;;;;;;;5027002;28;20049;-59
2021/08/12 05:33:40;;;;;;;9.60;4.95;;;;;;;;;;5014250;28;20042;-59
2021/08/12 05:36:08;;;;;;;9.82;4.15;;;;;;;;;;5010325;28;20462;-58
2021/08/12 05:38:37;;;;;;;6.28;4.45;;;;;;;;;;5006733;28;20053;-59
2021/08/12 05:41:05;;;;;;;9.23;4.40;;;;;;;;;;5022219;28;20563;-59
2021/08/12 05:43:33;;;;;;;7.78;4.05;;;;;;;;;;5024826;28;20164;-59
2021/08/12 05:46:01;;;;;;;10.52;4.55;;;;;;;;;;5025790;28;20160;-59
2021/08/12 05:48:31;;;;;;;10.40;3.97;;;;;;;;;;5026661;28;20515;-59
2021/08/12 05:50:59;;;;;;;7.25;4.35;;;;;;;;;;5025984;28;20049;-58
2021/08/12 05:53:30;;;;;;;8.23;4.30;;;;;;;;;;5026228;28;20148;-58
2021/08/12 05:55:58;;;;;;;10.60;5.22;;;;;;;;;;5027698;28;20049;-58
2021/08/12 05:58:26;;;;;;;9.38;5.10;;;;;;;;;;5025852;28;20065;-59
2021/08/12 06:00:55;;;;;;;15.32;4.88;;;;;;;;;;5024953;28;20061;-60
2021/08/12 06:03:23;;;;;;;8.30;4.75;;;;;;;;;;5012557;28;20501;-58
2021/08/12 06:05:57;;;;;;;11.40;6.22;;;;;;;;;;5025848;28;20061;-58
2021/08/12 06:08:26;;;;;;;9.63;4.95;;;;;;;;;;5023239;28;20045;-59
2021/08/12 06:10:54;;;;;;;9.63;5.55;;;;;;;;;;5021491;28;20079;-60
2021/08/12 06:13:26;;;;;;;11.63;6.63;;;;;;;;;;5015066;28;20056;-59
2021/08/12 06:15:54;;;;;;;12.88;5.90;;;;;;;;;;5021115;28;20137;-58
2021/08/12 06:18:23;;;;;;;18.42;6.40;;;;;;;;;;5016138;28;20084;-57
2021/08/12 06:20:51;;;;;;;11.70;6.45;;;;;;;;;;5022959;28;20115;-58
2021/08/12 06:23:21;;;;;;;12.98;6.20;;;;;;;;;;5012547;28;20045;-59
2021/08/12 06:25:49;;;;;;;12.20;6.50;;;;;;;;;;5016297;28;20038;-58
2021/08/12 06:28:17;;;;;;;10.90;7.05;;;;;;;;;;5027074;28;20582;-58
2021/08/12 06:30:46;;;;;;;14.55;7.70;;;;;;;;;;5016978;28;20467;-58
2021/08/12 06:33:14;;;;;;;14.98;7.15;;;;;;;;;;5016303;28;20076;-60
2021/08/12 06:35:42;;;;;;;15.30;7.55;;;;;;;;;;5022430;28;20057;-59
2021/08/12 06:38:11;;;;;;;16.48;8.10;;;;;;;;;;5022884;28;20057;-59
2021/08/12 06:40:41;;;;;;;15.32;7.47;;;;;;;;;;5044245;28;20057;-59
2021/08/12 06:43:10;;;;;;;14.00;7.25;;;;;;;;;;5031961;28;20193;-59
2021/08/12 06:45:38;;;;;;;15.73;7.38;;;;;;;;;;5011705;28;20132;-59
2021/08/12 06:48:07;;;;;;;11.98;7.20;;;;;;;;;;5014117;28;20085;-58
2021/08/12 06:50:35;;;;;;;14.68;6.95;;;;;;;;;;5019422;28;20366;-59
2021/08/12 06:53:04;;;;;;;14.35;7.40;;;;;;;;;;5017374;28;20047;-57
2021/08/12 06:55:34;;;;;;;13.85;7.32;;;;;;;;;;5022606;28;20068;-58
2021/08/12 06:58:04;;;;;;;12.73;7.22;;;;;;;;;;5019031;28;20053;-59
2021/08/12 07:00:32;;;;;;;15.30;7.55;;;;;;;;;;5026841;28;20132;-59
2021/08/12 07:03:00;;;;;;;17.73;7.63;;;;;;;;;;5000330;28;20057;-61
2021/08/12 07:05:29;;;;;;;12.65;7.68;;;;;;;;;;5002595;28;20512;-59
2021/08/12 07:07:57;;;;;;;14.25;7.03;;;;;;;;;;4999982;28;20077;-60
2021/08/12 07:10:26;;;;;;;14.88;8.50;;;;;;;;;;5004898;28;20179;-58
2021/08/12 07:12:54;;;;;;;11.50;7.30;;;;;;;;;;5003916;28;20521;-60
2021/08/12 07:15:24;;;;;;;17.45;8.15;;;;;;;;;;4999498;28;20513;-59
2021/08/12 07:17:52;;;;;;;15.35;7.80;;;;;;;;;;4994307;28;20046;-59
2021/08/12 07:20:21;;;;;;;12.52;7.35;;;;;;;;;;4987884;28;20082;-60
2021/08/12 07:22:49;;;;;;;14.30;7.25;;;;;;;;;;5005222;28;20080;-58
2021/08/12 07:25:19;;;;;;;13.50;7.18;;;;;;;;;;5004853;28;20093;-58
2021/08/12 07:27:49;;;;;;;15.43;8.07;;;;;;;;;;5004414;28;20049;-59
2021/08/12 07:30:18;;;;;;;20.70;7.20;;;;;;;;;;5001470;28;20064;-60
2021/08/12 07:32:48;;;;;;;14.68;7.20;;;;;;;;;;5005877;28;20050;-59
2021/08/12 07:35:18;;;;;;;13.07;7.30;;;;;;;;;;5004289;28;20053;-59
2021/08/12 07:37:47;;;;;;;14.88;7.68;;;;;;;;;;5005056;28;20057;-58
2021/08/12 07:40:15;;;;;;;12.57;6.30;;;;;;;;;;5004019;28;20152;-59
2021/08/12 07:42:43;;;;;;;12.45;6.75;;;;;;;;;;5004540;28;20060;-58
2021/08/12 07:45:12;;;;;;;9.90;6.15;;;;;;;;;;5002868;28;20050;-59
2021/08/12 07:47:42;;;;;;;11.60;6.63;;;;;;;;;;5004855;28;20045;-59
2021/08/12 07:50:12;;;;;;;13.52;6.75;;;;;;;;;;5004940;28;20213;-58
2021/08/12 07:52:41;;;;;;;12.48;6.25;;;;;;;;;;4998516;28;20049;-59
2021/08/12 07:55:10;;;;;;;11.45;6.18;;;;;;;;;;4993721;28;20116;-58
2021/08/12 07:57:39;;;;;;;12.07;5.60;;;;;;;;;;5003283;28;20089;-59
2021/08/12 08:00:08;;;;;;;10.75;6.32;;;;;;;;;;5003830;28;20058;-59
2021/08/12 08:02:46;;;;;;;11.30;6.47;;;;;;;;;;5020031;28;20143;-59
2021/08/12 08:05:17;;;;;;;12.35;6.30;;;;;;;;;;5043667;28;20052;-58
2021/08/12 08:07:47;;;;;;;13.52;6.20;;;;;;;;;;5025721;28;20085;-58
2021/08/12 08:10:16;;;;;;;10.75;6.07;;;;;;;;;;5023641;28;20045;-58
2021/08/12 08:12:44;;;;;;;13.65;7.03;;;;;;;;;;5024034;28;20087;-59
2021/08/12 08:15:13;;;;;;;12.50;6.15;;;;;;;;;;5022787;28;20060;-59
2021/08/12 08:18:00;;;;;;;11.70;5.93;;;;;;;;;;5023712;28;20090;-60
2021/08/12 08:20:30;;;;;;;14.60;6.88;;;;;;;;;;5023512;28;20057;-59
2021/08/12 08:23:02;;;;;;;13.80;6.53;;;;;;;;;;5023657;28;20057;-59
2021/08/12 08:25:31;;;;;;;8.88;5.90;;;;;;;;;;5026936;28;20315;-57
2021/08/12 08:28:00;;;;;;;11.65;5.80;;;;;;;;;;5043728;28;20049;-58
2021/08/12 08:30:30;;;;;;;15.23;6.05;;;;;;;;;;5029546;28;20349;-59
2021/08/12 08:32:59;;;;;;;9.52;5.43;;;;;;;;;;5021327;28;20080;-58
2021/08/12 08:35:28;;;;;;;9.02;5.80;;;;;;;;;;5023214;28;20072;-59
2021/08/12 08:37:59;;;;;;;8.55;5.78;;;;;;;;;;5018864;28;20058;-58
2021/08/12 08:40:28;;;;;;;11.80;6.50;;;;;;;;;;5019058;28;20054;-59
2021/08/12 08:42:57;;;;;;;12.02;6.88;;;;;;;;;;5022935;28;20057;-58
2021/08/12 08:45:26;;;;;;;14.25;6.35;;;;;;;;;;5006859;28;20084;-58
2021/08/12 08:47:56;;;;;;;11.05;5.82;;;;;;;;;;5011744;28;20497;-59
2021/08/12 08:50:26;;;;;;;9.20;5.43;;;;;;;;;;5024034;28;20045;-57
2021/08/12 08:52:55;;;;;;;14.18;6.72;;;;;;;;;;5018838;28;20096;-59
2021/08/12 08:55:24;;;;;;;9.60;5.15;;;;;;;;;;5022613;28;20338;-58
2021/08/12 08:57:53;;;;;;;9.65;5.72;;;;;;;;;;5013801;28;20521;-58
2021/08/12 09:00:22;;;;;;;10.60;6.05;;;;;;;;;;5010500;28;20180;-59
2021/08/12 09:02:51;;;;;;;12.98;5.82;;;;;;;;;;5006249;28;20088;-59
2021/08/12 09:05:20;;;;;;;11.07;6.15;;;;;;;;;;5007650;28;20137;-59
2021/08/12 09:07:50;;;;;;;11.05;5.80;;;;;;;;;;5012835;28;20524;-58
2021/08/12 09:10:20;;;;;;;12.55;5.22;;;;;;;;;;5006512;28;20062;-59
2021/08/12 09:12:50;;;;;;;10.15;5.57;;;;;;;;;;5020151;28;20045;-59
2021/08/12 09:15:20;;;;;;;12.32;6.25;;;;;;;;;;5019557;28;20080;-58
2021/08/12 09:17:49;;;;;;;10.25;6.03;;;;;;;;;;5008560;28;20064;-59
2021/08/12 09:20:21;;;;;;;7.95;4.75;;;;;;;;;;5006257;28;20131;-59
2021/08/12 09:22:54;;;;;;;10.05;5.72;;;;;;;;;;5023230;28;20159;-58
2021/08/12 09:25:34;;;;;;;11.77;5.72;;;;;;;;;;5014824;28;20081;-59
2021/08/12 09:28:12;;;;;;;10.13;5.88;;;;;;;;;;5011520;28;20083;-58
2021/08/12 09:30:41;;;;;;;7.85;5.18;;;;;;;;;;5012243;28;20064;-58
2021/08/12 09:33:14;;;;;;;9.10;5.03;;;;;;;;;;5016039;28;20046;-59
2021/08/12 09:35:43;;;;;;;9.10;5.40;;;;;;;;;;5019600;28;20057;-58
2021/08/12 09:38:12;;;;;;;9.52;5.47;;;;;;;;;;5020272;28;20326;-59
2021/08/12 09:40:40;;;;;;;8.45;5.18;;;;;;;;;;5013026;28;20085;-58
2021/08/12 09:43:10;;;;;;;9.35;5.70;;;;;;;;;;5017941;28;20119;-60
2021/08/12 09:45:41;;;;;;;9.82;6.15;;;;;;;;;;5018220;28;20458;-59
2021/08/12 09:48:12;;;;;;;10.90;5.72;;;;;;;;;;5022971;28;20057;-59
2021/08/12 09:50:40;;;;;;;9.05;5.18;;;;;;;;;;5018505;28;20266;-59
2021/08/12 09:53:09;;;;;;;8.93;5.57;;;;;;;;;;5006274;28;20084;-60
2021/08/12 09:55:41;;;;;;;13.07;5.47;;;;;;;;;;5019007;28;20115;-59
2021/08/12 09:58:10;;;;;;;8.20;5.55;;;;;;;;;;5025800;28;20366;-59
2021/08/12 10:00:41;;;;;;;9.88;5.40;;;;;;;;;;5025266;28;20072;-59
2021/08/12 10:03:28;;;;;;;7.15;5.45;;;;;;;;;;5029603;28;20059;-59
2021/08/12 10:05:57;;;;;;;8.85;5.40;;;;;;;;;;5024487;28;20498;-60
2021/08/12 10:08:26;;;;;;;9.50;5.18;;;;;;;;;;5022417;28;20587;-60
2021/08/12 10:10:55;;;;;;;11.07;5.35;;;;;;;;;;5022627;28;20890;-60
2021/08/12 10:13:23;;;;;;;8.25;4.82;;;;;;;;;;5020196;28;20103;-59
2021/08/12 10:15:52;;;;;;;8.07;5.40;;;;;;;;;;5012720;28;20398;-59
2021/08/12 10:18:21;;;;;;;6.65;4.65;;;;;;;;;;5024173;28;20704;-59
2021/08/12 10:20:51;;;;;;;8.35;5.18;;;;;;;;;;5023913;28;20510;-59
2021/08/12 10:23:20;;;;;;;5.75;4.20;;;;;;;;;;5014390;28;20089;-58
2021/08/12 10:25:50;;;;;;;12.00;5.80;;;;;;;;;;5023239;28;20173;-59
2021/08/12 10:28:20;;;;;;;7.05;4.78;;;;;;;;;;5017917;28;20393;-58
2021/08/12 10:30:49;;;;;;;7.85;4.82;;;;;;;;;;5016481;28;20138;-59
2021/08/12 10:33:17;;;;;;;7.10;4.70;;;;;;;;;;5022874;28;20360;-58
2021/08/12 10:35:46;;;;;;;10.00;5.45;;;;;;;;;;5017669;28;20577;-58
2021/08/12 10:38:16;;;;;;;8.15;5.22;;;;;;;;;;5020381;28;20057;-59
2021/08/12 10:40:45;;;;;;;7.60;4.90;;;;;;;;;;5005296;28;20084;-59
2021/08/12 10:43:15;;;;;;;6.75;4.93;;;;;;;;;;5014392;28;20130;-59
2021/08/12 10:45:53;;;;;;;6.85;4.43;;;;;;;;;;5035949;28;20124;-59
2021/08/12 10:48:24;;;;;;;7.80;5.53;;;;;;;;;;5025214;28;20055;-59
2021/08/12 10:51:13;;;;;;;8.48;5.43;;;;;;;;;;5025503;28;20137;-59
2021/08/12 10:53:43;;;;;;;8.40;4.90;;;;;;;;;;5024027;28;20575;-60
2021/08/12 10:56:16;;;;;;;6.95;5.05;;;;;;;;;;5024875;28;20125;-60
2021/08/12 10:58:45;;;;;;;7.13;4.68;;;;;;;;;;5025210;28;20593;-59
2021/08/12 11:01:14;;;;;;;7.47;4.82;;;;;;;;;;5024663;28;20107;-59
2021/08/12 11:03:47;;;;;;;7.50;5.15;;;;;;;;;;5024879;28;20056;-59
2021/08/12 11:06:16;;;;;;;7.78;5.30;;;;;;;;;;5043136;28;20060;-59
2021/08/12 11:09:04;;;;;;;8.32;4.93;;;;;;;;;;5024796;28;20089;-60
2021/08/12 11:11:51;;;;;;;6.63;4.63;;;;;;;;;;5011370;28;20046;-60
2021/08/12 11:14:34;;;;;;;6.88;5.00;;;;;;;;;;5016312;28;20053;-60
2021/08/12 11:17:03;;;;;;;8.75;4.75;;;;;;;;;;5014374;28;20270;-60
2021/08/12 11:19:36;;;;;;;6.70;4.72;;;;;;;;;;5012166;28;20073;-59
2021/08/12 11:22:25;;;;;;;7.68;4.82;;;;;;;;;;5025670;28;20049;-60
2021/08/12 11:24:54;;;;;;;10.55;5.85;;;;;;;;;;5021032;28;20234;-59
2021/08/12 11:27:40;;;;;;;7.38;5.25;;;;;;;;;;5019597;28;20117;-59
2021/08/12 11:30:35;;;;;;;7.78;4.90;;;;;;;;;;5016330;28;20065;-59
2021/08/12 11:33:23;;;;;;;8.55;4.93;;;;;;;;;;4984403;28;20049;-59
2021/08/12 11:36:13;;;;;;;8.02;5.75;;;;;;;;;;5021863;28;20147;-60
2021/08/12 11:38:46;;;;;;;7.25;4.47;;;;;;;;;;5028727;28;20702;-60
2021/08/12 11:41:16;;;;;;;8.93;4.80;;;;;;;;;;5015497;28;20042;-59
2021/08/12 11:43:44;;;;;;;7.75;5.05;;;;;;;;;;5020329;28;20053;-59
2021/08/12 11:46:13;;;;;;;8.80;5.10;;;;;;;;;;5021885;28;20054;-60
2021/08/12 11:48:42;;;;;;;6.47;4.80;;;;;;;;;;5025402;28;20547;-60
2021/08/12 11:51:11;;;;;;;7.57;5.35;;;;;;;;;;5027634;28;20500;-60
2021/08/12 11:53:40;;;;;;;7.35;4.90;;;;;;;;;;5027597;28;20049;-59
2021/08/12 11:56:10;;;;;;;8.15;5.47;;;;;;;;;;5016263;28;20057;-59
2021/08/12 11:58:40;;;;;;;7.30;4.70;;;;;;;;;;5028303;28;20053;-59
2021/08/12 12:01:12;;;;;;;7.43;4.47;;;;;;;;;;5027402;28;20167;-59
2021/08/12 12:03:41;;;;;;;7.85;4.72;;;;;;;;;;5035417;28;20055;-59
2021/08/12 12:06:09;;;;;;;6.75;4.78;;;;;;;;;;5035380;28;20069;-60
2021/08/12 12:08:38;;;;;;;7.75;4.97;;;;;;;;;;5046980;28;20057;-59
2021/08/12 12:11:10;;;;;;;7.22;5.13;;;;;;;;;;5030004;28;20053;-60
2021/08/12 12:13:40;;;;;;;8.85;5.10;;;;;;;;;;5026572;28;20081;-59
2021/08/12 12:16:10;;;;;;;8.55;5.20;;;;;;;;;;5034674;28;20065;-59
2021/08/12 12:18:38;;;;;;;7.22;4.40;;;;;;;;;;5029811;28;20223;-60
2021/08/12 12:21:08;;;;;;;8.07;4.65;;;;;;;;;;5027524;28;20049;-59
2021/08/12 12:23:37;;;;;;;7.63;5.30;;;;;;;;;;5026376;28;20056;-60
2021/08/12 12:26:05;;;;;;;8.82;4.50;;;;;;;;;;5046250;28;20501;-59
2021/08/12 12:28:41;;;;;;;6.68;4.32;;;;;;;;;;5046564;28;20128;-59
2021/08/12 12:31:16;;;;;;;8.88;4.70;;;;;;;;;;5025925;28;20463;-59
2021/08/12 12:33:45;;;;;;;8.27;5.32;;;;;;;;;;5026666;28;20132;-60
2021/08/12 12:36:14;;;;;;;7.32;4.72;;;;;;;;;;5030263;28;20148;-60
2021/08/12 12:38:42;;;;;;;6.80;4.43;;;;;;;;;;5027911;28;20595;-59
2021/08/12 12:41:11;;;;;;;8.13;4.88;;;;;;;;;;5047520;28;20052;-59
2021/08/12 12:43:41;;;;;;;8.82;4.75;;;;;;;;;;5031304;28;20500;-60
2021/08/12 12:46:09;;;;;;;10.23;4.80;;;;;;;;;;5022413;28;20173;-59
2021/08/12 12:48:39;;;;;;;7.80;4.60;;;;;;;;;;5027285;28;20045;-60
2021/08/12 12:51:09;;;;;;;8.32;4.65;;;;;;;;;;5026184;28;20049;-60
2021/08/12 12:53:38;;;;;;;6.65;4.57;;;;;;;;;;5025993;28;20042;-60
2021/08/12 12:56:19;;;;;;;7.85;4.70;;;;;;;;;;5023493;28;20537;-60
2021/08/12 12:58:48;;;;;;;6.88;4.55;;;;;;;;;;5024348;28;20529;-59
2021/08/12 13:01:21;;;;;;;7.57;4.93;;;;;;;;;;5020552;28;20212;-59
2021/08/12 13:03:56;;;;;;;9.13;4.88;;;;;;;;;;5012769;28;20424;-60
2021/08/12 13:06:34;;;;;;;7.22;4.75;;;;;;;;;;5018054;28;20041;-59
2021/08/12 13:09:03;;;;;;;8.75;4.40;;;;;;;;;;5013126;28;20133;-59
2021/08/12 13:11:32;;;;;;;7.40;4.85;;;;;;;;;;5016414;28;20053;-59
2021/08/12 13:14:09;;;;;;;7.35;5.13;;;;;;;;;;5014460;28;20077;-60
2021/08/12 13:16:39;;;;;;;7.45;4.72;;;;;;;;;;5016639;28;20120;-60
2021/08/12 13:19:17;;;;;;;6.47;4.85;;;;;;;;;;5021583;28;20049;-60
2021/08/12 13:21:46;;;;;;;7.43;4.90;;;;;;;;;;5050639;28;20057;-59
2021/08/12 13:24:15;;;;;;;6.93;4.40;;;;;;;;;;5021990;28;20427;-60
2021/08/12 13:26:44;;;;;;;9.23;5.05;;;;;;;;;;5029489;28;20107;-60
2021/08/12 13:29:17;;;;;;;8.07;4.60;;;;;;;;;;5021807;28;20092;-59
2021/08/12 13:31:47;;;;;;;8.90;4.43;;;;;;;;;;5010752;28;20128;-60
2021/08/12 13:34:16;;;;;;;7.60;4.82;;;;;;;;;;5016530;28;20049;-60
2021/08/12 13:36:44;;;;;;;9.52;4.95;;;;;;;;;;5014365;28;20085;-60
2021/08/12 13:39:13;;;;;;;6.65;4.90;;;;;;;;;;5026833;28;20054;-59
2021/08/12 13:41:45;;;;;;;7.30;4.93;;;;;;;;;;5027510;28;20506;-59
2021/08/12 13:44:15;;;;;;;7.40;4.82;;;;;;;;;;5020365;28;20081;-60
2021/08/12 13:46:44;;;;;;;7.53;4.65;;;;;;;;;;5021177;28;20061;-59
2021/08/12 13:49:12;;;;;;;7.15;4.75;;;;;;;;;;5027208;28;20112;-59
2021/08/12 13:51:41;;;;;;;7.60;4.95;;;;;;;;;;5030044;28;20049;-59
2021/08/12 13:54:09;;;;;;;9.10;5.00;;;;;;;;;;5029671;28;20053;-59
2021/08/12 13:56:38;;;;;;;6.97;4.97;;;;;;;;;;5040782;28;20359;-59
2021/08/12 13:59:23;;;;;;;8.88;5.05;;;;;;;;;;5041607;28;20448;-60
2021/08/12 14:01:52;;;;;;;7.03;4.45;;;;;;;;;;5026626;28;20110;-61
2021/08/12 14:04:21;;;;;;;8.65;5.10;;;;;;;;;;5028276;28;20390;-60
2021/08/12 14:06:50;;;;;;;7.68;4.90;;;;;;;;;;5025712;28;20038;-59
2021/08/12 14:09:19;;;;;;;6.13;4.57;;;;;;;;;;5022115;28;20063;-59
2021/08/12 14:11:48;;;;;;;9.40;4.72;;;;;;;;;;5021802;28;20480;-59
2021/08/12 14:14:16;;;;;;;7.10;4.95;;;;;;;;;;5025032;28;20057;-60
2021/08/12 14:16:46;;;;;;;8.00;4.55;;;;;;;;;;5024236;28;20107;-60
2021/08/12 14:19:14;;;;;;;7.72;4.72;;;;;;;;;;5025219;28;20061;-60
2021/08/12 14:21:43;;;;;;;6.47;4.80;;;;;;;;;;5020165;28;20119;-60
2021/08/12 14:24:12;;;;;;;6.70;4.53;;;;;;;;;;5016404;28;20084;-60
2021/08/12 14:26:40;;;;;;;8.07;5.40;;;;;;;;;;5021635;28;20045;-59
2021/08/12 14:29:11;;;;;;;10.98;5.18;;;;;;;;;;5018330;28;20053;-59
2021/08/12 14:31:39;;;;;;;8.77;4.82;;;;;;;;;;5020188;28;20469;-60
2021/08/12 14:34:10;;;;;;;6.90;4.82;;;;;;;;;;5028255;28;20140;-59
2021/08/12 14:36:39;;;;;;;7.82;4.65;;;;;;;;;;5031242;28;20080;-60
2021/08/12 14:39:10;;;;;;;7.85;4.90;;;;;;;;;;5029075;28;20137;-60
2021/08/12 14:41:38;;;;;;;6.28;4.30;;;;;;;;;;5020271;28;20045;-59
2021/08/12 14:44:07;;;;;;;6.80;5.25;;;;;;;;;;5016263;28;20062;-59
2021/08/12 14:46:35;;;;;;;9.98;4.50;;;;;;;;;;5027167;28;20045;-60
2021/08/12 14:49:03;;;;;;;5.70;4.32;;;;;;;;;;5021347;28;20593;-59
2021/08/12 14:51:33;;;;;;;7.35;4.68;;;;;;;;;;5028193;28;20464;-59
2021/08/12 14:54:01;;;;;;;10.35;5.05;;;;;;;;;;5027924;28;20544;-59